Wednesday, April 25, 2018, 1:09 AM EDT
Back to Local

KUCP, New Castle, New Castle Municipal Airport

Location: Edinburg, PA, United States Lat: 41.025
Local Time: 1:09 AM EDT ( 5:09 GMT) Lon: -80.413
Time Zone: US/Eastern Elev: 1072 ft

Show me the last for .
Show Decoded

2018-04-25 00:15 METAR KUCP 250415Z AUTO 08004KT 7SM -RA SCT014 BKN031 OVC090 10/10 A2994 RMK AO2
                 P0000 =
2018-04-24 23:56 METAR KUCP 250356Z AUTO 09004KT 9SM -RA BKN012 BKN026 OVC034 10/10 A2995 RMK AO2
                 SLP159 P0002 T01000100 =
2018-04-24 22:56 METAR KUCP 250256Z AUTO 09003KT 10SM -RA OVC014 11/11 A2998 RMK AO2 SLP168 P0001
                 60009 T01060106 56010 =
2018-04-24 22:53 METAR KUCP 250253Z AUTO 09005KT 10SM -RA BKN014 OVC020 11/11 A2998 RMK AO2 P0001
                 =
2018-04-24 22:19 METAR KUCP 250219Z AUTO 08005KT 10SM -RA FEW015 BKN026 OVC065 11/11 A2999 RMK
                 AO2 P0000 =
2018-04-24 21:56 METAR KUCP 250156Z AUTO 07005KT 8SM -RA FEW013 SCT031 OVC055 11/11 A2999 RMK AO2
                 SLP174 P0005 T01060106 =
2018-04-24 21:42 METAR KUCP 250142Z AUTO 10004KT 6SM -RA BR FEW010 SCT035 OVC055 11/11 A3000 RMK
                 AO2 P0005 =
2018-04-24 21:13 METAR KUCP 250113Z AUTO 10004KT 6SM -RA BR SCT009 BKN015 OVC025 11/11 A3001 RMK
                 AO2 P0002 =
2018-04-24 20:56 METAR KUCP 250056Z AUTO 11004KT 6SM RA BR BKN013 OVC019 11/11 A3001 RMK AO2
                 SLP178 P0003 T01060106 =
2018-04-24 20:30 METAR KUCP 250030Z AUTO 12004KT 9SM -RA BKN013 BKN021 OVC060 11/11 A3001 RMK AO2
                 P0001 =
2018-04-24 19:56 METAR KUCP 242356Z AUTO 09004KT 10SM -RA FEW013 SCT034 OVC055 11/11 A3000 RMK
                 AO2 SLP176 P0003 60015 T01060106 10117 20106 56008 =
2018-04-24 19:54 METAR KUCP 242354Z AUTO 09005KT 10SM -RA FEW015 SCT030 OVC055 11/11 A3000 RMK
                 AO2 P0003 =
2018-04-24 19:36 METAR KUCP 242336Z AUTO 10007KT 10SM -RA SCT013 BKN029 OVC060 11/11 A3000 RMK
                 AO2 P0003 =
2018-04-24 19:24 METAR KUCP 242324Z AUTO 09006KT 7SM -RA BKN009 BKN013 OVC030 11/11 A3001 RMK AO2
                 CIG 008V012 P0002 =
2018-04-24 19:09 METAR KUCP 242309Z AUTO 10005KT 6SM -RA BR OVC013 11/11 A3001 RMK AO2 P0001 =
2018-04-24 18:56 METAR KUCP 242256Z AUTO 11004KT 8SM -RA OVC015 11/11 A3002 RMK AO2 SLP181 P0003
                 T01060106 =
2018-04-24 17:56 METAR KUCP 242156Z AUTO 11006KT 10SM -RA OVC015 11/11 A3003 RMK AO2 SLP184 P0001
                 T01110111 TSNO =
2018-04-24 17:10 METAR KUCP 242110Z AUTO 11008KT 10SM -RA OVC015 11/11 A3003 RMK AO2 P0000 =
2018-04-24 16:56 METAR KUCP 242056Z AUTO 10008KT 10SM -RA BKN013 BKN019 OVC026 12/11 A3003 RMK
                 AO2 SLP187 P0001 60008 T01170111 56020 =
2018-04-24 16:19 METAR KUCP 242019Z AUTO 10006KT 10SM -RA BKN015 BKN025 OVC055 12/11 A3004 RMK
                 AO2 P0000 =
2018-04-24 15:56 METAR KUCP 241956Z AUTO 09007KT 8SM -RA FEW010 BKN014 OVC055 12/11 A3005 RMK AO2
                 SLP192 P0003 T01170111 =
2018-04-24 14:56 METAR KUCP 241856Z AUTO 11006KT 10SM -RA OVC011 11/11 A3008 RMK AO2 SLP200 P0004
                 T01110111 =
2018-04-24 13:56 METAR KUCP 241756Z AUTO 11007KT 9SM -RA OVC013 11/11 A3010 RMK AO2 SLP207 P0005
                 60011 T01060106 10122 20100 56020 =
2018-04-24 13:37 METAR KUCP 241737Z AUTO 11006KT 8SM RA BKN013 OVC043 11/11 A3010 RMK AO2 P0004 =
2018-04-24 13:11 METAR KUCP 241711Z AUTO 10006KT 8SM RA SCT015 BKN020 OVC047 11/10 A3011 RMK AO2
                 P0001 =
2018-04-24 12:56 METAR KUCP 241656Z AUTO 10006KT 9SM -RA SCT015 BKN031 OVC047 11/11 A3011 RMK AO2
                 SLP211 P0003 T01060106 =
2018-04-24 11:56 METAR KUCP 241556Z AUTO 10007G14KT 9SM -RA OVC045 11/10 A3013 RMK AO2 SLP219
                 P0002 T01060100 TSNO =
2018-04-24 10:56 METAR KUCP 241456Z AUTO 11008KT 10SM -RA OVC043 11/08 A3016 RMK AO2 RAB1357
                 SLP227 P0001 60001 T01110083 58008 =
2018-04-24 09:56 METAR KUCP 241356Z AUTO 13006KT 10SM OVC045 12/06 A3017 RMK AO2 RAB05E21 SLP231
                 P0000 T01170056 =
2018-04-24 08:56 METAR KUCP 241256Z AUTO VRB06KT 10SM OVC045 12/05 A3018 RMK AO2 SLP234 T01170050
                 =
2018-04-24 07:56 METAR KUCP 241156Z AUTO 10008KT 10SM OVC095 12/06 A3018 RMK AO2 SLP235 60000
                 T01170061 10139 20111 55002 =
2018-04-24 06:56 METAR KUCP 241056Z AUTO 10006KT 10SM SCT070 OVC100 11/06 A3018 RMK AO2 RAE0957
                 SLP234 T01110061 =
2018-04-24 05:56 METAR KUCP 240956Z AUTO 10008G14KT 10SM -RA OVC070 11/07 A3018 RMK AO2 RAB13
                 SLP233 P0000 T01110067 =
2018-04-24 04:56 METAR KUCP 240856Z AUTO 11006KT 10SM OVC060 12/08 A3019 RMK AO2 RAE17 SLP236
                 P0000 60000 T01170078 58001 =
2018-04-24 03:56 METAR KUCP 240756Z AUTO 10006KT 10SM -RA OVC055 12/09 A3020 RMK AO2 RAB01 SLP238
                 P0000 T01170089 =
2018-04-24 02:56 METAR KUCP 240656Z AUTO 13010KT 10SM SCT050 SCT070 OVC085 14/07 A3019 RMK AO2
                 SLP235 T01390072 =
2018-04-24 01:56 METAR KUCP 240556Z AUTO 11006KT 10SM BKN070 OVC080 14/08 A3019 RMK AO2 RAE42
                 SLP236 P0000 60000 T01390083 10189 20133 58006 =

Support USWX by starting your Amazon purchase here.